Time;durP1;ratioP1;P1;durP2;ratioP2;P2;SDS_P1;SDS_P2;PMS_P1;PMS_P2;Temp;Humidity;BMP_temperature;BMP_pressure;BME280_temperature;BME280_humidity;BME280_pressure;Samples;Min_cycle;Max_cycle;Signal;HPM_P1;HPM_P2
2022/04/19 00:00:03;;;;;;;13.07;10.48;;;;;;;;;;5055137;28;20076;-81
2022/04/19 00:02:30;;;;;;;12.68;10.82;;;;;;;;;;5041485;28;20067;-81
2022/04/19 00:04:59;;;;;;;11.48;9.57;;;;;;;;;;5013833;28;20072;-81
2022/04/19 00:07:25;;;;;;;12.60;9.23;;;;;;;;;;5028415;28;20042;-81
2022/04/19 00:09:51;;;;;;;12.52;9.95;;;;;;;;;;5034535;28;20033;-81
2022/04/19 00:12:17;;;;;;;12.00;9.25;;;;;;;;;;5044967;28;20060;-81
2022/04/19 00:14:43;;;;;;;12.15;8.57;;;;;;;;;;5041600;28;20021;-81
2022/04/19 00:17:09;;;;;;;12.15;8.65;;;;;;;;;;5052282;28;20029;-81
2022/04/19 00:19:36;;;;;;;11.85;9.05;;;;;;;;;;5048546;28;20032;-81
2022/04/19 00:22:02;;;;;;;12.05;8.50;;;;;;;;;;5030481;28;20033;-81
2022/04/19 00:24:28;;;;;;;9.68;7.97;;;;;;;;;;5053513;28;20079;-81
2022/04/19 00:26:55;;;;;;;10.98;8.55;;;;;;;;;;5040804;28;20025;-81
2022/04/19 00:29:21;;;;;;;9.18;7.72;;;;;;;;;;5040149;28;20065;-81
2022/04/19 00:31:47;;;;;;;8.95;6.95;;;;;;;;;;5040125;28;20395;-81
2022/04/19 00:34:13;;;;;;;9.60;7.43;;;;;;;;;;5054562;28;20029;-81
2022/04/19 00:36:39;;;;;;;9.02;7.20;;;;;;;;;;5055011;28;20024;-81
2022/04/19 00:39:05;;;;;;;9.18;7.32;;;;;;;;;;5055183;28;20028;-81
2022/04/19 00:41:31;;;;;;;9.60;7.63;;;;;;;;;;5030768;28;20025;-81
2022/04/19 00:43:57;;;;;;;9.35;7.10;;;;;;;;;;5044038;28;20080;-81
2022/04/19 00:46:24;;;;;;;9.20;7.20;;;;;;;;;;5038828;28;20026;-81
2022/04/19 00:48:52;;;;;;;8.55;6.90;;;;;;;;;;5038621;28;20021;-81
2022/04/19 00:51:19;;;;;;;8.25;7.13;;;;;;;;;;5054063;28;20035;-81
2022/04/19 00:53:47;;;;;;;9.30;7.07;;;;;;;;;;5023231;28;20037;-81
2022/04/19 00:56:14;;;;;;;9.00;7.22;;;;;;;;;;5019563;28;20511;-81
2022/04/19 00:58:40;;;;;;;11.18;7.20;;;;;;;;;;5041646;28;20060;-81
2022/04/19 01:01:06;;;;;;;9.60;7.22;;;;;;;;;;5044231;28;20020;-81
2022/04/19 01:03:32;;;;;;;8.90;7.03;;;;;;;;;;5029823;28;20068;-81
2022/04/19 01:05:59;;;;;;;9.20;6.95;;;;;;;;;;5038138;28;20462;-81
2022/04/19 01:08:25;;;;;;;9.20;7.03;;;;;;;;;;5038805;28;20037;-81
2022/04/19 01:13:17;;;;;;;10.10;7.40;;;;;;;;;;5039417;28;20075;-81
2022/04/19 01:13:38;;;;;;;11.85;7.40;;;;;;;;;;5032459;28;20461;-81
2022/04/19 01:16:05;;;;;;;9.98;6.90;;;;;;;;;;5036268;28;20032;-81
2022/04/19 01:18:31;;;;;;;8.95;7.65;;;;;;;;;;5057901;28;20430;-81
2022/04/19 01:20:58;;;;;;;8.63;6.70;;;;;;;;;;5052053;28;20048;-81
2022/04/19 01:23:25;;;;;;;9.55;7.35;;;;;;;;;;5035833;28;20542;-81
2022/04/19 01:25:51;;;;;;;10.05;7.35;;;;;;;;;;5037346;28;20027;-81
2022/04/19 01:28:21;;;;;;;8.32;7.03;;;;;;;;;;5036391;28;20029;-81
2022/04/19 01:30:52;;;;;;;8.52;6.85;;;;;;;;;;5028480;28;20065;-81
2022/04/19 01:33:18;;;;;;;11.45;8.48;;;;;;;;;;5037464;28;20095;-81
2022/04/19 01:35:44;;;;;;;9.27;7.05;;;;;;;;;;5035661;28;20026;-81
2022/04/19 01:38:10;;;;;;;9.50;7.22;;;;;;;;;;5052262;28;20029;-81
2022/04/19 01:40:36;;;;;;;10.10;6.85;;;;;;;;;;5056231;28;20021;-81
2022/04/19 01:43:03;;;;;;;10.50;7.82;;;;;;;;;;5043188;28;20057;-81
2022/04/19 01:45:31;;;;;;;10.88;8.43;;;;;;;;;;5043033;28;20467;-81
2022/04/19 01:47:57;;;;;;;11.15;9.32;;;;;;;;;;5042806;28;20472;-81
2022/04/19 01:50:27;;;;;;;12.95;8.82;;;;;;;;;;5035825;28;20025;-81
2022/04/19 01:52:56;;;;;;;12.77;9.80;;;;;;;;;;5037462;28;20033;-81
2022/04/19 01:55:22;;;;;;;12.13;9.13;;;;;;;;;;5038656;28;20025;-81
2022/04/19 01:57:48;;;;;;;10.50;8.32;;;;;;;;;;5033486;28;20493;-81
2022/04/19 02:00:16;;;;;;;11.68;8.15;;;;;;;;;;5056557;28;20028;-81
2022/04/19 02:02:43;;;;;;;10.63;8.32;;;;;;;;;;5057650;28;20021;-81
2022/04/19 02:05:09;;;;;;;11.73;8.48;;;;;;;;;;5040861;28;20022;-81
2022/04/19 02:07:42;;;;;;;10.85;8.40;;;;;;;;;;5017898;28;20046;-81
2022/04/19 02:10:09;;;;;;;9.57;8.30;;;;;;;;;;5017569;28;20034;-81
2022/04/19 02:12:35;;;;;;;12.30;7.70;;;;;;;;;;5032161;28;20380;-81
2022/04/19 02:15:01;;;;;;;10.80;8.15;;;;;;;;;;5057084;28;20398;-81
2022/04/19 02:17:27;;;;;;;10.93;8.32;;;;;;;;;;5057373;28;20033;-81
2022/04/19 02:20:00;;;;;;;10.18;8.45;;;;;;;;;;5050976;28;20043;-81
2022/04/19 02:22:27;;;;;;;12.13;8.93;;;;;;;;;;5036895;28;20052;-81
2022/04/19 02:24:53;;;;;;;10.52;8.48;;;;;;;;;;5051130;28;20100;-81
2022/04/19 02:27:19;;;;;;;10.10;8.02;;;;;;;;;;5045013;28;20030;-81
2022/04/19 02:29:45;;;;;;;8.00;6.10;;;;;;;;;;5054794;28;20059;-80
2022/04/19 02:32:12;;;;;;;8.95;6.13;;;;;;;;;;5027881;28;20029;-81
2022/04/19 02:34:38;;;;;;;8.48;6.00;;;;;;;;;;5056376;28;20483;-81
2022/04/19 02:37:04;;;;;;;7.88;5.80;;;;;;;;;;5043739;28;20048;-81
2022/04/19 02:39:30;;;;;;;8.50;5.55;;;;;;;;;;5016204;28;20113;-81
2022/04/19 02:41:56;;;;;;;7.60;5.43;;;;;;;;;;5024144;28;20049;-81
2022/04/19 02:44:22;;;;;;;8.30;5.55;;;;;;;;;;5052696;28;20108;-81
2022/04/19 02:46:49;;;;;;;7.70;5.40;;;;;;;;;;5036487;28;20056;-81
2022/04/19 02:49:15;;;;;;;9.23;5.93;;;;;;;;;;5036187;28;20068;-81
2022/04/19 02:51:41;;;;;;;8.00;5.90;;;;;;;;;;5030689;28;20101;-81
2022/04/19 02:54:07;;;;;;;9.98;6.32;;;;;;;;;;5016936;28;20049;-81
2022/04/19 02:56:33;;;;;;;8.82;6.45;;;;;;;;;;5034371;28;20088;-81
2022/04/19 02:58:59;;;;;;;8.43;6.10;;;;;;;;;;5037392;28;20022;-81
2022/04/19 03:01:26;;;;;;;8.80;6.40;;;;;;;;;;5037646;28;20551;-81
2022/04/19 03:03:52;;;;;;;9.02;6.65;;;;;;;;;;5044563;28;20480;-81
2022/04/19 03:06:18;;;;;;;9.45;6.95;;;;;;;;;;5040439;28;20021;-81
2022/04/19 03:08:44;;;;;;;9.23;7.00;;;;;;;;;;5050422;28;20510;-82
2022/04/19 03:11:12;;;;;;;8.30;6.70;;;;;;;;;;5066918;28;20324;-82
2022/04/19 03:13:38;;;;;;;9.55;6.88;;;;;;;;;;5051602;28;20037;-82
2022/04/19 03:16:04;;;;;;;8.98;6.53;;;;;;;;;;5052051;28;20045;-82
2022/04/19 03:18:30;;;;;;;10.23;6.72;;;;;;;;;;5077490;28;20445;-82
2022/04/19 03:20:58;;;;;;;10.15;6.80;;;;;;;;;;5077151;28;20025;-82
2022/04/19 03:28:54;;;;;;;9.63;6.40;;;;;;;;;;5046119;28;20102;-81
2022/04/19 03:31:22;;;;;;;9.18;6.65;;;;;;;;;;5050606;28;20025;-81
2022/04/19 03:33:52;;;;;;;9.63;6.78;;;;;;;;;;5031330;28;20116;-81
2022/04/19 03:36:18;;;;;;;9.73;6.45;;;;;;;;;;5032466;28;20029;-82
2022/04/19 03:38:44;;;;;;;8.52;6.38;;;;;;;;;;5033683;28;20025;-82
2022/04/19 03:41:10;;;;;;;9.27;6.85;;;;;;;;;;5050777;28;20021;-81
2022/04/19 03:43:37;;;;;;;9.77;6.97;;;;;;;;;;5053482;28;20044;-82
2022/04/19 03:46:03;;;;;;;8.65;6.47;;;;;;;;;;5049582;28;20022;-82
2022/04/19 03:48:29;;;;;;;10.52;7.18;;;;;;;;;;5039540;28;20032;-81
2022/04/19 03:50:55;;;;;;;9.25;7.20;;;;;;;;;;5072771;28;20029;-82
2022/04/19 03:53:21;;;;;;;9.20;6.20;;;;;;;;;;5076661;28;20024;-82
2022/04/19 03:55:47;;;;;;;9.13;6.65;;;;;;;;;;5070258;28;20025;-81
2022/04/19 03:58:13;;;;;;;9.02;6.68;;;;;;;;;;5056620;28;20404;-82
2022/04/19 04:00:39;;;;;;;9.52;6.70;;;;;;;;;;5039964;28;20340;-81
2022/04/19 04:03:06;;;;;;;10.07;7.47;;;;;;;;;;5031456;28;20018;-81
2022/04/19 04:05:32;;;;;;;9.57;7.25;;;;;;;;;;5034503;28;20064;-82
2022/04/19 04:07:58;;;;;;;8.57;6.25;;;;;;;;;;5030564;28;20046;-83
2022/04/19 04:10:25;;;;;;;8.20;6.45;;;;;;;;;;5021789;28;20029;-83
2022/04/19 04:12:51;;;;;;;9.18;6.95;;;;;;;;;;5026928;28;20037;-83
2022/04/19 04:15:17;;;;;;;10.20;6.95;;;;;;;;;;5017532;28;20026;-81
2022/04/19 04:17:43;;;;;;;8.52;6.47;;;;;;;;;;5035209;28;20133;-82
2022/04/19 04:20:09;;;;;;;8.95;6.75;;;;;;;;;;5036029;28;20061;-82
2022/04/19 04:22:35;;;;;;;9.90;7.07;;;;;;;;;;5035380;28;20025;-82
2022/04/19 04:25:02;;;;;;;11.75;6.90;;;;;;;;;;5020247;28;20022;-82
2022/04/19 04:27:28;;;;;;;9.73;7.30;;;;;;;;;;5031669;28;20101;-82
2022/04/19 04:29:54;;;;;;;9.52;7.80;;;;;;;;;;5019955;28;20029;-82
2022/04/19 04:32:20;;;;;;;11.23;7.28;;;;;;;;;;5017594;28;20041;-82
2022/04/19 04:34:46;;;;;;;9.60;7.20;;;;;;;;;;5022441;28;20507;-82
2022/04/19 04:37:12;;;;;;;9.60;7.00;;;;;;;;;;5044321;28;20036;-83
2022/04/19 04:39:39;;;;;;;10.88;7.53;;;;;;;;;;5036320;28;20025;-81
2022/04/19 04:42:05;;;;;;;8.77;6.47;;;;;;;;;;5021894;28;20022;-83
2022/04/19 04:44:31;;;;;;;9.05;6.78;;;;;;;;;;5024778;28;20044;-83
2022/04/19 04:49:42;;;;;;;9.82;6.68;;;;;;;;;;5021121;28;20511;-83
2022/04/19 04:52:10;;;;;;;11.57;7.03;;;;;;;;;;5019591;28;20036;-82
2022/04/19 04:54:40;;;;;;;10.18;6.75;;;;;;;;;;5033314;28;20045;-81
2022/04/19 04:57:06;;;;;;;10.07;7.15;;;;;;;;;;5035144;28;20025;-82
2022/04/19 04:59:33;;;;;;;10.55;6.80;;;;;;;;;;5034611;28;20025;-80
2022/04/19 05:05:02;;;;;;;9.27;6.57;;;;;;;;;;5025051;28;20033;-82
2022/04/19 05:07:28;;;;;;;9.05;6.65;;;;;;;;;;5032668;28;20040;-83
2022/04/19 05:09:57;;;;;;;9.35;6.50;;;;;;;;;;5030696;28;20065;-82
2022/04/19 05:12:23;;;;;;;9.35;6.18;;;;;;;;;;5017974;28;20022;-82
2022/04/19 05:14:49;;;;;;;10.23;6.25;;;;;;;;;;5023819;28;20029;-82
2022/04/19 05:17:15;;;;;;;8.60;6.28;;;;;;;;;;5031234;28;20026;-83
2022/04/19 05:19:41;;;;;;;8.30;5.72;;;;;;;;;;5013787;28;20489;-83
2022/04/19 05:22:07;;;;;;;11.93;5.97;;;;;;;;;;5024695;28;20233;-81
2022/04/19 05:24:33;;;;;;;9.13;6.07;;;;;;;;;;5026302;28;20055;-80
2022/04/19 05:30:03;;;;;;;10.30;5.70;;;;;;;;;;5020058;28;20028;-80
2022/04/19 05:32:29;;;;;;;11.65;5.63;;;;;;;;;;5032986;28;20443;-80
2022/04/19 05:34:55;;;;;;;9.05;6.30;;;;;;;;;;5027771;28;20029;-80
2022/04/19 05:37:21;;;;;;;8.38;6.35;;;;;;;;;;5032946;28;20029;-80
2022/04/19 05:39:47;;;;;;;9.68;5.72;;;;;;;;;;5028292;28;20029;-81
2022/04/19 05:42:13;;;;;;;7.70;5.38;;;;;;;;;;5019868;28;20040;-81
2022/04/19 05:44:39;;;;;;;8.38;5.70;;;;;;;;;;5026997;28;20080;-81
2022/04/19 05:47:05;;;;;;;7.80;5.35;;;;;;;;;;5022398;28;20081;-81
2022/04/19 05:49:32;;;;;;;10.40;5.60;;;;;;;;;;5019041;28;20100;-81
2022/04/19 05:51:58;;;;;;;9.52;5.88;;;;;;;;;;5021445;28;20119;-81
2022/04/19 05:54:24;;;;;;;8.95;5.70;;;;;;;;;;5021102;28;20502;-81
2022/04/19 05:56:50;;;;;;;11.23;5.80;;;;;;;;;;5013945;28;20030;-81
2022/04/19 05:59:16;;;;;;;9.38;4.95;;;;;;;;;;5016335;28;20048;-81
2022/04/19 06:07:11;;;;;;;8.77;4.90;;;;;;;;;;5023729;28;131562;-81
2022/04/19 06:09:37;;;;;;;8.23;4.70;;;;;;;;;;5019600;28;20026;-81
2022/04/19 06:12:03;;;;;;;9.60;4.93;;;;;;;;;;5015471;28;20053;-81
2022/04/19 06:14:29;;;;;;;9.23;5.53;;;;;;;;;;5017999;28;20026;-86
2022/04/19 06:16:55;;;;;;;9.52;5.13;;;;;;;;;;5018469;28;20125;-82
2022/04/19 06:19:22;;;;;;;10.93;5.40;;;;;;;;;;5028082;28;20021;-82
2022/04/19 06:21:48;;;;;;;7.78;5.20;;;;;;;;;;5029769;28;20022;-82
2022/04/19 06:24:14;;;;;;;10.13;5.85;;;;;;;;;;5017194;28;20029;-82
2022/04/19 06:26:40;;;;;;;9.52;5.70;;;;;;;;;;5024342;28;20029;-82
2022/04/19 06:32:11;;;;;;;;;;;;;;;;;;5033343;28;20088;-82
2022/04/19 06:34:37;;;;;;;8.73;5.20;;;;;;;;;;5021054;28;19984;-82
2022/04/19 06:37:03;;;;;;;7.72;4.70;;;;;;;;;;5025427;28;20053;-82
2022/04/19 06:39:29;;;;;;;7.93;4.95;;;;;;;;;;5016472;28;20021;-82
2022/04/19 06:41:55;;;;;;;9.10;5.43;;;;;;;;;;5016236;28;20032;-82
2022/04/19 06:44:21;;;;;;;10.18;5.68;;;;;;;;;;5015269;28;20378;-82
2022/04/19 06:46:49;;;;;;;9.13;6.35;;;;;;;;;;5023927;28;20394;-82
2022/04/19 06:49:15;;;;;;;9.05;5.75;;;;;;;;;;5020327;28;20018;-82
2022/04/19 06:51:41;;;;;;;10.10;5.88;;;;;;;;;;5035138;28;20025;-82
2022/04/19 06:54:09;;;;;;;10.18;6.38;;;;;;;;;;5047416;28;20105;-82
2022/04/19 06:56:35;;;;;;;9.30;6.25;;;;;;;;;;5026131;28;20037;-82
2022/04/19 06:59:01;;;;;;;10.48;5.85;;;;;;;;;;5053469;28;20033;-82
2022/04/19 07:01:27;;;;;;;9.90;5.88;;;;;;;;;;5047359;28;20037;-82
2022/04/19 07:03:54;;;;;;;9.15;6.30;;;;;;;;;;5035994;28;20391;-82
2022/04/19 07:06:20;;;;;;;9.00;5.47;;;;;;;;;;5026640;28;20034;-82
2022/04/19 07:08:46;;;;;;;10.40;6.65;;;;;;;;;;5046973;28;20128;-82
2022/04/19 07:11:12;;;;;;;10.57;6.20;;;;;;;;;;5034105;28;20033;-81
2022/04/19 07:13:39;;;;;;;12.40;7.22;;;;;;;;;;5036184;28;20053;-81
2022/04/19 07:16:05;;;;;;;9.77;6.55;;;;;;;;;;5035336;28;20032;-81
2022/04/19 07:18:32;;;;;;;11.98;7.15;;;;;;;;;;5053174;28;20025;-81
2022/04/19 07:26:40;;;;;;;14.00;7.22;;;;;;;;;;5035802;28;20080;-81
2022/04/19 07:29:13;;;;;;;9.00;6.18;;;;;;;;;;5036068;28;20028;-81
2022/04/19 07:31:39;;;;;;;10.32;5.95;;;;;;;;;;5035268;28;20081;-81
2022/04/19 07:34:05;;;;;;;10.68;6.45;;;;;;;;;;5034908;28;20472;-81
2022/04/19 07:36:31;;;;;;;9.70;6.80;;;;;;;;;;5036455;28;20029;-81
2022/04/19 07:38:58;;;;;;;12.75;8.05;;;;;;;;;;5038383;28;20026;-81
2022/04/19 07:41:25;;;;;;;11.45;7.72;;;;;;;;;;5036580;28;20028;-81
2022/04/19 07:43:51;;;;;;;12.93;8.05;;;;;;;;;;5035126;28;20078;-81
2022/04/19 07:46:18;;;;;;;10.27;7.18;;;;;;;;;;5036493;28;20033;-81
2022/04/19 07:48:44;;;;;;;10.73;6.70;;;;;;;;;;5034417;28;20558;-81
2022/04/19 07:51:11;;;;;;;12.70;7.40;;;;;;;;;;5036069;28;20037;-81
2022/04/19 07:53:37;;;;;;;9.52;6.60;;;;;;;;;;5037831;28;20045;-81
2022/04/19 07:56:03;;;;;;;28.55;15.73;;;;;;;;;;5054568;28;20029;-81
2022/04/19 07:58:29;;;;;;;32.50;17.60;;;;;;;;;;5055246;28;20113;-81
2022/04/19 08:00:55;;;;;;;10.98;7.50;;;;;;;;;;5056674;28;20056;-81
2022/04/19 08:03:21;;;;;;;18.75;11.80;;;;;;;;;;5056730;28;20017;-81
2022/04/19 08:05:47;;;;;;;40.33;18.20;;;;;;;;;;5036768;28;20033;-81
2022/04/19 08:08:13;;;;;;;30.58;14.98;;;;;;;;;;5034768;28;20080;-81
2022/04/19 08:10:39;;;;;;;26.13;14.50;;;;;;;;;;5036622;28;20028;-81
2022/04/19 08:13:05;;;;;;;22.10;11.77;;;;;;;;;;5038524;28;20101;-81
2022/04/19 08:15:32;;;;;;;10.57;7.32;;;;;;;;;;5036760;28;20482;-81
2022/04/19 08:17:58;;;;;;;10.75;7.10;;;;;;;;;;5034316;28;20030;-81
2022/04/19 08:20:25;;;;;;;10.45;7.30;;;;;;;;;;5036291;28;20490;-82
2022/04/19 08:22:51;;;;;;;10.75;8.02;;;;;;;;;;5043910;28;20025;-81
2022/04/19 08:25:17;;;;;;;13.52;7.68;;;;;;;;;;5037435;28;20025;-81
2022/04/19 08:27:47;;;;;;;13.13;7.85;;;;;;;;;;5035579;28;20028;-81
2022/04/19 08:30:17;;;;;;;10.02;7.25;;;;;;;;;;5035994;28;20432;-81
2022/04/19 08:32:44;;;;;;;10.02;6.78;;;;;;;;;;5033889;28;20042;-81
2022/04/19 08:35:10;;;;;;;12.70;7.78;;;;;;;;;;5038104;28;20373;-81
2022/04/19 08:37:36;;;;;;;22.88;12.93;;;;;;;;;;5036605;28;20033;-81
2022/04/19 08:40:06;;;;;;;13.23;8.30;;;;;;;;;;5035961;28;20101;-81
2022/04/19 08:42:33;;;;;;;10.00;7.10;;;;;;;;;;5042435;28;20383;-81
2022/04/19 08:45:03;;;;;;;11.63;7.82;;;;;;;;;;5053992;28;20017;-81
2022/04/19 08:47:32;;;;;;;12.10;8.20;;;;;;;;;;5055962;28;20028;-81
2022/04/19 08:50:01;;;;;;;11.68;7.90;;;;;;;;;;5044499;28;20031;-81
2022/04/19 08:52:27;;;;;;;10.70;7.40;;;;;;;;;;5043002;28;20017;-81
2022/04/19 08:57:39;;;;;;;15.98;8.10;;;;;;;;;;5056468;28;20036;-81
2022/04/19 09:00:07;;;;;;;11.65;8.07;;;;;;;;;;5056177;28;20503;-81
2022/04/19 09:02:33;;;;;;;11.48;9.07;;;;;;;;;;5050986;28;20047;-82
2022/04/19 09:05:28;;;;;;;11.93;8.80;;;;;;;;;;5039039;28;20376;-81
2022/04/19 09:07:57;;;;;;;12.75;8.65;;;;;;;;;;5057860;28;20546;-82
2022/04/19 09:10:33;;;;;;;12.18;7.97;;;;;;;;;;5057603;28;20025;-81
2022/04/19 09:13:04;;;;;;;11.80;7.82;;;;;;;;;;5042397;28;20554;-82
2022/04/19 09:15:36;;;;;;;10.63;7.60;;;;;;;;;;5059065;28;20032;-81
2022/04/19 09:18:02;;;;;;;12.35;8.40;;;;;;;;;;5058438;28;20570;-81
2022/04/19 09:20:28;;;;;;;16.60;10.70;;;;;;;;;;5038986;28;20501;-81
2022/04/19 09:23:05;;;;;;;13.43;9.35;;;;;;;;;;5066885;28;20029;-81
2022/04/19 09:25:32;;;;;;;13.00;8.55;;;;;;;;;;5069198;28;20262;-81
2022/04/19 09:27:59;;;;;;;12.80;8.95;;;;;;;;;;5037633;28;20063;-81
2022/04/19 09:30:27;;;;;;;14.30;9.60;;;;;;;;;;5054296;28;20033;-81
2022/04/19 09:33:08;;;;;;;20.52;13.55;;;;;;;;;;5037605;28;20029;-81
2022/04/19 09:35:34;;;;;;;13.13;9.05;;;;;;;;;;5055206;28;20551;-81
2022/04/19 09:38:00;;;;;;;13.18;9.05;;;;;;;;;;5037101;28;20037;-81
2022/04/19 09:40:44;;;;;;;11.13;8.23;;;;;;;;;;5054201;28;20033;-80
2022/04/19 09:43:10;;;;;;;13.20;9.07;;;;;;;;;;5050533;28;20024;-80
2022/04/19 09:45:51;;;;;;;18.67;12.60;;;;;;;;;;5049190;28;20491;-81
2022/04/19 09:48:22;;;;;;;18.33;12.85;;;;;;;;;;5034793;28;20026;-81
2022/04/19 09:50:49;;;;;;;11.43;8.52;;;;;;;;;;5035099;28;20022;-80
2022/04/19 09:53:19;;;;;;;17.25;11.48;;;;;;;;;;5039706;28;20028;-81
2022/04/19 09:55:49;;;;;;;20.58;13.43;;;;;;;;;;5053611;28;20025;-81
2022/04/19 09:58:15;;;;;;;24.85;17.05;;;;;;;;;;5055706;28;20116;-80
2022/04/19 10:00:44;;;;;;;24.45;15.88;;;;;;;;;;5054023;28;20132;-80
2022/04/19 10:08:38;;;;;;;13.52;9.52;;;;;;;;;;5035371;28;20519;-80
2022/04/19 10:11:04;;;;;;;18.58;12.77;;;;;;;;;;5035239;28;20033;-80
2022/04/19 10:13:32;;;;;;;16.00;10.82;;;;;;;;;;5033796;28;20400;-80
2022/04/19 10:15:59;;;;;;;18.20;12.98;;;;;;;;;;5055009;28;20479;-80
2022/04/19 10:18:25;;;;;;;16.80;12.00;;;;;;;;;;5054632;28;20021;-80
2022/04/19 10:20:53;;;;;;;12.02;8.93;;;;;;;;;;5054771;28;20017;-80
2022/04/19 10:23:19;;;;;;;11.43;8.95;;;;;;;;;;5055126;28;20026;-80
2022/04/19 10:25:46;;;;;;;12.10;9.30;;;;;;;;;;5049050;28;20499;-80
2022/04/19 10:28:25;;;;;;;12.07;9.40;;;;;;;;;;5054458;28;20380;-80
2022/04/19 10:30:53;;;;;;;12.63;9.88;;;;;;;;;;5053036;28;20032;-80
2022/04/19 10:33:38;;;;;;;14.15;10.00;;;;;;;;;;5041171;28;20043;-80
2022/04/19 10:36:17;;;;;;;12.15;9.90;;;;;;;;;;5031792;28;20060;-80
2022/04/19 10:38:44;;;;;;;15.32;9.82;;;;;;;;;;5034051;28;20060;-80
2022/04/19 10:41:10;;;;;;;14.18;10.07;;;;;;;;;;5034505;28;20087;-80
2022/04/19 10:43:36;;;;;;;16.33;11.85;;;;;;;;;;5034153;28;20029;-80
2022/04/19 10:46:17;;;;;;;14.20;11.10;;;;;;;;;;5045257;28;20048;-80
2022/04/19 10:49:03;;;;;;;12.48;10.02;;;;;;;;;;5034937;28;20056;-80
2022/04/19 10:51:30;;;;;;;13.77;9.80;;;;;;;;;;5033101;28;20028;-80
2022/04/19 10:53:56;;;;;;;12.98;10.07;;;;;;;;;;5037534;28;21197;-80
2022/04/19 10:56:22;;;;;;;12.30;8.98;;;;;;;;;;5049915;28;20025;-80
2022/04/19 10:58:48;;;;;;;12.00;8.43;;;;;;;;;;5034202;28;20048;-80
2022/04/19 11:01:32;;;;;;;10.98;7.82;;;;;;;;;;5033914;28;20032;-80
2022/04/19 11:04:00;;;;;;;13.60;8.65;;;;;;;;;;5035100;28;20029;-80
2022/04/19 11:06:38;;;;;;;11.43;8.85;;;;;;;;;;5034506;28;20037;-80
2022/04/19 11:09:07;;;;;;;12.32;8.05;;;;;;;;;;5041805;28;20054;-79
2022/04/19 11:11:52;;;;;;;10.18;7.07;;;;;;;;;;5056636;28;20022;-81
2022/04/19 11:14:19;;;;;;;10.63;7.35;;;;;;;;;;5060859;28;20016;-79
2022/04/19 11:16:48;;;;;;;9.93;7.20;;;;;;;;;;5075497;28;20048;-81
2022/04/19 11:19:16;;;;;;;9.50;6.85;;;;;;;;;;5062199;28;20079;-79
2022/04/19 11:21:50;;;;;;;11.80;8.10;;;;;;;;;;5047201;28;20072;-80
2022/04/19 11:24:35;;;;;;;10.13;6.70;;;;;;;;;;5037673;28;20505;-81
2022/04/19 11:27:01;;;;;;;11.95;7.88;;;;;;;;;;5052994;28;20032;-80
2022/04/19 11:29:27;;;;;;;10.75;8.02;;;;;;;;;;5043491;28;20112;-80
2022/04/19 11:31:53;;;;;;;12.40;8.13;;;;;;;;;;5032079;28;20026;-81
2022/04/19 11:34:19;;;;;;;12.02;8.00;;;;;;;;;;5034023;28;20605;-80
2022/04/19 11:36:45;;;;;;;11.13;8.23;;;;;;;;;;5032389;28;20056;-80
2022/04/19 11:47:57;;;;;;;11.43;7.93;;;;;;;;;;5046875;28;20339;-80
2022/04/19 11:50:31;;;;;;;11.63;8.00;;;;;;;;;;5054813;28;20021;-80
2022/04/19 11:53:00;;;;;;;11.50;8.23;;;;;;;;;;5062998;28;20009;-79
2022/04/19 11:55:27;;;;;;;12.05;8.52;;;;;;;;;;5056798;28;20017;-79
2022/04/19 11:58:06;;;;;;;11.88;7.85;;;;;;;;;;5039869;28;20562;-81
2022/04/19 12:00:32;;;;;;;11.48;7.35;;;;;;;;;;5032752;28;20021;-81
2022/04/19 12:03:02;;;;;;;10.90;7.63;;;;;;;;;;5040638;28;20495;-81
2022/04/19 12:05:30;;;;;;;15.65;10.20;;;;;;;;;;5038896;28;20022;-81
2022/04/19 12:07:57;;;;;;;15.65;10.15;;;;;;;;;;5032931;28;20068;-81
2022/04/19 12:10:23;;;;;;;14.23;9.50;;;;;;;;;;5032024;28;20406;-81
2022/04/19 12:12:50;;;;;;;12.57;8.93;;;;;;;;;;5039118;28;20430;-81
2022/04/19 12:15:35;;;;;;;12.80;8.60;;;;;;;;;;5052101;28;20380;-81
2022/04/19 12:18:01;;;;;;;11.93;8.73;;;;;;;;;;5051335;28;20548;-81
2022/04/19 12:20:27;;;;;;;15.75;9.98;;;;;;;;;;5052841;28;20020;-81
2022/04/19 12:22:53;;;;;;;11.73;9.10;;;;;;;;;;5043099;28;20056;-81
2022/04/19 12:25:25;;;;;;;14.07;9.80;;;;;;;;;;5031633;28;20038;-81
2022/04/19 12:27:53;;;;;;;15.80;10.17;;;;;;;;;;5032795;28;20044;-80
2022/04/19 12:30:20;;;;;;;16.80;12.23;;;;;;;;;;5032491;28;20030;-81
2022/04/19 12:32:50;;;;;;;13.85;10.43;;;;;;;;;;5037948;28;20037;-80
2022/04/19 12:35:17;;;;;;;17.20;12.90;;;;;;;;;;5013223;28;20520;-81
2022/04/19 12:37:43;;;;;;;18.70;12.95;;;;;;;;;;5016560;28;20018;-81
2022/04/19 12:40:09;;;;;;;16.48;10.93;;;;;;;;;;5017193;28;20026;-81
2022/04/19 12:42:51;;;;;;;16.08;10.25;;;;;;;;;;5026117;28;20064;-81
2022/04/19 12:45:18;;;;;;;15.70;11.68;;;;;;;;;;5055303;28;20380;-81
2022/04/19 12:47:48;;;;;;;17.98;11.90;;;;;;;;;;5052162;28;20033;-81
2022/04/19 12:50:15;;;;;;;16.13;11.75;;;;;;;;;;5036430;28;20041;-81
2022/04/19 12:52:42;;;;;;;15.70;12.00;;;;;;;;;;5041672;28;20016;-81
2022/04/19 12:55:11;;;;;;;17.05;12.13;;;;;;;;;;5056115;28;20557;-81
2022/04/19 12:57:39;;;;;;;19.73;15.30;;;;;;;;;;5056126;28;20029;-82
2022/04/19 13:00:09;;;;;;;15.30;12.05;;;;;;;;;;5057416;28;20021;-81
2022/04/19 13:02:40;;;;;;;14.90;11.10;;;;;;;;;;5052792;28;20028;-81
2022/04/19 13:05:07;;;;;;;13.82;10.57;;;;;;;;;;5055381;28;20029;-81
2022/04/19 13:13:07;;;;;;;14.25;10.52;;;;;;;;;;5035017;28;20499;-81
2022/04/19 13:15:37;;;;;;;13.20;9.45;;;;;;;;;;5036130;28;20545;-80
2022/04/19 13:18:03;;;;;;;15.38;10.27;;;;;;;;;;5040788;28;20021;-81
2022/04/19 13:20:29;;;;;;;16.75;10.88;;;;;;;;;;5053173;28;20044;-81
2022/04/19 13:22:55;;;;;;;13.55;10.27;;;;;;;;;;5034336;28;20021;-81
2022/04/19 13:25:22;;;;;;;17.38;10.68;;;;;;;;;;5034942;28;20028;-81
2022/04/19 13:27:48;;;;;;;14.63;10.63;;;;;;;;;;5037195;28;20096;-81
2022/04/19 13:30:16;;;;;;;13.13;9.90;;;;;;;;;;5035901;28;20030;-81
2022/04/19 13:32:42;;;;;;;14.18;9.95;;;;;;;;;;5035224;28;20025;-82
2022/04/19 13:35:09;;;;;;;13.95;9.68;;;;;;;;;;5034238;28;20029;-81
2022/04/19 13:40:23;;;;;;;14.55;10.88;;;;;;;;;;5040170;28;20081;-81
2022/04/19 13:42:51;;;;;;;14.80;10.77;;;;;;;;;;5034769;28;20025;-82
2022/04/19 13:45:18;;;;;;;15.45;11.18;;;;;;;;;;5035618;28;20550;-81
2022/04/19 13:47:44;;;;;;;16.65;11.68;;;;;;;;;;5034390;28;20025;-81
2022/04/19 13:50:10;;;;;;;15.80;11.00;;;;;;;;;;5035488;28;20025;-81
2022/04/19 13:52:36;;;;;;;16.02;11.77;;;;;;;;;;5034123;28;20049;-81
2022/04/19 13:55:03;;;;;;;14.55;11.55;;;;;;;;;;5034196;28;20121;-82
2022/04/19 13:57:29;;;;;;;12.55;8.95;;;;;;;;;;5035419;28;20245;-81
2022/04/19 13:59:56;;;;;;;14.35;9.70;;;;;;;;;;5035716;28;20446;-80
2022/04/19 14:02:22;;;;;;;12.57;9.73;;;;;;;;;;5034950;28;20030;-81
2022/04/19 14:04:48;;;;;;;14.93;11.65;;;;;;;;;;5046311;28;20025;-81
2022/04/19 14:07:14;;;;;;;14.18;9.63;;;;;;;;;;5054860;28;20487;-81
2022/04/19 14:09:40;;;;;;;16.70;10.25;;;;;;;;;;5055104;28;20021;-81
2022/04/19 14:12:07;;;;;;;12.45;9.18;;;;;;;;;;5042188;28;20086;-81
2022/04/19 14:14:33;;;;;;;13.95;9.48;;;;;;;;;;5035125;28;20026;-80
2022/04/19 14:17:01;;;;;;;11.15;8.27;;;;;;;;;;5053872;28;20555;-81
2022/04/19 14:19:27;;;;;;;12.23;8.68;;;;;;;;;;5042141;28;20108;-80
2022/04/19 14:21:53;;;;;;;14.43;9.20;;;;;;;;;;5034237;28;20025;-79
2022/04/19 14:24:21;;;;;;;10.95;8.45;;;;;;;;;;5041412;28;20049;-80
2022/04/19 14:26:47;;;;;;;14.10;10.02;;;;;;;;;;5054488;28;20021;-80
2022/04/19 14:34:42;;;;;;;10.95;7.53;;;;;;;;;;5043980;28;20040;-80
2022/04/19 14:37:08;;;;;;;12.55;8.65;;;;;;;;;;5034624;28;20387;-80
2022/04/19 14:39:34;;;;;;;11.88;8.88;;;;;;;;;;5032864;28;20026;-80
2022/04/19 14:42:02;;;;;;;12.75;8.75;;;;;;;;;;5033774;28;20022;-80
2022/04/19 14:44:29;;;;;;;11.02;8.50;;;;;;;;;;5040623;28;20025;-80
2022/04/19 14:46:56;;;;;;;12.48;8.35;;;;;;;;;;5054301;28;20033;-80
2022/04/19 14:49:22;;;;;;;12.32;8.75;;;;;;;;;;5049539;28;20380;-80
2022/04/19 14:54:32;;;;;;;10.50;7.68;;;;;;;;;;5034765;28;20545;-80
2022/04/19 14:56:58;;;;;;;11.10;8.27;;;;;;;;;;5034916;28;20030;-80
2022/04/19 14:59:24;;;;;;;12.35;8.70;;;;;;;;;;5032261;28;20045;-80
2022/04/19 15:01:50;;;;;;;12.82;9.80;;;;;;;;;;5033809;28;20527;-81
2022/04/19 15:04:16;;;;;;;14.23;10.15;;;;;;;;;;5052693;28;20025;-80
2022/04/19 15:06:42;;;;;;;12.27;9.43;;;;;;;;;;5053933;28;20021;-80
2022/04/19 15:09:09;;;;;;;11.07;8.45;;;;;;;;;;5053660;28;20045;-80
2022/04/19 15:11:35;;;;;;;11.05;8.15;;;;;;;;;;5048233;28;20399;-79
2022/04/19 15:14:01;;;;;;;13.13;8.68;;;;;;;;;;5033692;28;20030;-80
2022/04/19 15:16:27;;;;;;;11.52;8.30;;;;;;;;;;5033839;28;20495;-80
2022/04/19 15:18:53;;;;;;;11.40;8.10;;;;;;;;;;5033631;28;20027;-79
2022/04/19 15:21:19;;;;;;;11.65;8.45;;;;;;;;;;5042505;28;20115;-80
2022/04/19 15:23:45;;;;;;;10.25;8.25;;;;;;;;;;5033564;28;20124;-80
2022/04/19 15:26:11;;;;;;;11.77;8.20;;;;;;;;;;5033450;28;20119;-79
2022/04/19 15:28:37;;;;;;;11.88;8.43;;;;;;;;;;5050987;28;20068;-79
2022/04/19 15:31:03;;;;;;;11.40;8.23;;;;;;;;;;5052142;28;20056;-79
2022/04/19 15:33:29;;;;;;;12.55;8.60;;;;;;;;;;5047201;28;20044;-80